sensor_id;sensor_type;location;lat;lon;timestamp;P1;durP1;ratioP1;P2;durP2;ratioP2
21665;SDS011;10994;45.486;9.190;2022-12-18T00:02:06;14.00;;;11.43;;
21665;SDS011;10994;45.486;9.190;2022-12-18T00:04:32;12.10;;;10.27;;
21665;SDS011;10994;45.486;9.190;2022-12-18T00:06:58;11.80;;;9.23;;
21665;SDS011;10994;45.486;9.190;2022-12-18T00:09:23;18.33;;;10.73;;
21665;SDS011;10994;45.486;9.190;2022-12-18T00:11:49;12.70;;;9.97;;
21665;SDS011;10994;45.486;9.190;2022-12-18T00:14:15;13.23;;;9.87;;
21665;SDS011;10994;45.486;9.190;2022-12-18T00:16:43;13.30;;;10.23;;
21665;SDS011;10994;45.486;9.190;2022-12-18T00:19:10;12.07;;;9.73;;
21665;SDS011;10994;45.486;9.190;2022-12-18T00:21:36;13.77;;;9.93;;
21665;SDS011;10994;45.486;9.190;2022-12-18T00:24:01;13.17;;;10.17;;
21665;SDS011;10994;45.486;9.190;2022-12-18T00:26:28;12.07;;;10.07;;
21665;SDS011;10994;45.486;9.190;2022-12-18T00:29:00;14.30;;;10.13;;
21665;SDS011;10994;45.486;9.190;2022-12-18T00:31:31;13.23;;;10.20;;
21665;SDS011;10994;45.486;9.190;2022-12-18T00:33:58;11.07;;;9.30;;
21665;SDS011;10994;45.486;9.190;2022-12-18T00:36:26;13.80;;;11.07;;
21665;SDS011;10994;45.486;9.190;2022-12-18T00:38:54;14.37;;;10.93;;
21665;SDS011;10994;45.486;9.190;2022-12-18T00:41:21;13.07;;;11.30;;
21665;SDS011;10994;45.486;9.190;2022-12-18T00:44:06;12.90;;;9.83;;
21665;SDS011;10994;45.486;9.190;2022-12-18T00:46:34;11.00;;;9.50;;
21665;SDS011;10994;45.486;9.190;2022-12-18T00:49:00;11.83;;;9.87;;
21665;SDS011;10994;45.486;9.190;2022-12-18T00:51:27;11.63;;;9.73;;
21665;SDS011;10994;45.486;9.190;2022-12-18T00:53:52;11.63;;;10.43;;
21665;SDS011;10994;45.486;9.190;2022-12-18T00:56:22;11.60;;;9.50;;
21665;SDS011;10994;45.486;9.190;2022-12-18T00:58:48;13.67;;;10.03;;
21665;SDS011;10994;45.486;9.190;2022-12-18T01:01:14;12.17;;;10.27;;
21665;SDS011;10994;45.486;9.190;2022-12-18T01:03:40;12.17;;;9.70;;
21665;SDS011;10994;45.486;9.190;2022-12-18T01:06:07;14.80;;;10.50;;
21665;SDS011;10994;45.486;9.190;2022-12-18T01:08:34;14.07;;;10.50;;
21665;SDS011;10994;45.486;9.190;2022-12-18T01:11:00;11.93;;;10.07;;
21665;SDS011;10994;45.486;9.190;2022-12-18T01:13:31;14.53;;;10.67;;
21665;SDS011;10994;45.486;9.190;2022-12-18T01:15:57;11.77;;;9.83;;
21665;SDS011;10994;45.486;9.190;2022-12-18T01:18:22;13.00;;;10.37;;
21665;SDS011;10994;45.486;9.190;2022-12-18T01:20:49;15.60;;;10.87;;
21665;SDS011;10994;45.486;9.190;2022-12-18T01:23:15;13.83;;;11.80;;
21665;SDS011;10994;45.486;9.190;2022-12-18T01:25:41;16.73;;;10.70;;
21665;SDS011;10994;45.486;9.190;2022-12-18T01:28:08;20.27;;;13.43;;
21665;SDS011;10994;45.486;9.190;2022-12-18T01:30:34;19.10;;;13.40;;
21665;SDS011;10994;45.486;9.190;2022-12-18T01:33:00;17.40;;;13.10;;
21665;SDS011;10994;45.486;9.190;2022-12-18T01:35:26;20.60;;;14.40;;
21665;SDS011;10994;45.486;9.190;2022-12-18T01:37:55;22.33;;;14.70;;
21665;SDS011;10994;45.486;9.190;2022-12-18T01:40:21;23.30;;;16.37;;
21665;SDS011;10994;45.486;9.190;2022-12-18T01:42:51;25.10;;;16.10;;
21665;SDS011;10994;45.486;9.190;2022-12-18T01:47:45;24.93;;;16.60;;
21665;SDS011;10994;45.486;9.190;2022-12-18T01:52:52;28.97;;;17.17;;
21665;SDS011;10994;45.486;9.190;2022-12-18T01:55:22;27.23;;;19.20;;
21665;SDS011;10994;45.486;9.190;2022-12-18T01:57:54;26.03;;;18.63;;
21665;SDS011;10994;45.486;9.190;2022-12-18T02:00:23;30.93;;;19.13;;
21665;SDS011;10994;45.486;9.190;2022-12-18T02:02:51;29.73;;;19.73;;
21665;SDS011;10994;45.486;9.190;2022-12-18T02:05:19;31.17;;;20.30;;
21665;SDS011;10994;45.486;9.190;2022-12-18T02:08:09;28.23;;;20.30;;
21665;SDS011;10994;45.486;9.190;2022-12-18T02:13:36;29.07;;;19.40;;
21665;SDS011;10994;45.486;9.190;2022-12-18T02:16:21;31.53;;;20.03;;
21665;SDS011;10994;45.486;9.190;2022-12-18T02:19:14;32.63;;;20.67;;
21665;SDS011;10994;45.486;9.190;2022-12-18T02:27:31;35.63;;;20.73;;
21665;SDS011;10994;45.486;9.190;2022-12-18T02:29:59;32.33;;;21.33;;
21665;SDS011;10994;45.486;9.190;2022-12-18T02:32:29;31.17;;;21.23;;
21665;SDS011;10994;45.486;9.190;2022-12-18T02:34:59;33.40;;;21.10;;
21665;SDS011;10994;45.486;9.190;2022-12-18T02:37:28;32.30;;;21.23;;
21665;SDS011;10994;45.486;9.190;2022-12-18T02:39:56;31.47;;;20.63;;
21665;SDS011;10994;45.486;9.190;2022-12-18T02:42:24;32.53;;;19.47;;
21665;SDS011;10994;45.486;9.190;2022-12-18T02:44:51;31.60;;;20.03;;
21665;SDS011;10994;45.486;9.190;2022-12-18T02:47:22;29.90;;;19.70;;
21665;SDS011;10994;45.486;9.190;2022-12-18T02:57:58;34.10;;;21.03;;
21665;SDS011;10994;45.486;9.190;2022-12-18T03:00:43;30.30;;;20.03;;
21665;SDS011;10994;45.486;9.190;2022-12-18T03:03:24;28.50;;;18.00;;
21665;SDS011;10994;45.486;9.190;2022-12-18T03:05:57;28.93;;;20.37;;
21665;SDS011;10994;45.486;9.190;2022-12-18T03:08:28;33.63;;;20.97;;
21665;SDS011;10994;45.486;9.190;2022-12-18T03:11:05;29.40;;;18.73;;
21665;SDS011;10994;45.486;9.190;2022-12-18T03:13:45;30.33;;;18.77;;
21665;SDS011;10994;45.486;9.190;2022-12-18T03:16:22;27.50;;;19.53;;
21665;SDS011;10994;45.486;9.190;2022-12-18T03:19:05;30.33;;;19.70;;
21665;SDS011;10994;45.486;9.190;2022-12-18T03:21:40;30.73;;;20.03;;
21665;SDS011;10994;45.486;9.190;2022-12-18T03:24:08;29.10;;;18.53;;
21665;SDS011;10994;45.486;9.190;2022-12-18T03:26:37;31.23;;;19.77;;
21665;SDS011;10994;45.486;9.190;2022-12-18T03:29:09;31.47;;;19.73;;
21665;SDS011;10994;45.486;9.190;2022-12-18T03:31:48;31.20;;;19.63;;
21665;SDS011;10994;45.486;9.190;2022-12-18T03:34:23;33.87;;;20.90;;
21665;SDS011;10994;45.486;9.190;2022-12-18T03:36:52;31.20;;;19.40;;
21665;SDS011;10994;45.486;9.190;2022-12-18T03:39:18;31.67;;;19.50;;
21665;SDS011;10994;45.486;9.190;2022-12-18T03:41:55;37.93;;;21.13;;
21665;SDS011;10994;45.486;9.190;2022-12-18T03:47:27;31.63;;;20.07;;
21665;SDS011;10994;45.486;9.190;2022-12-18T03:50:07;36.17;;;21.13;;
21665;SDS011;10994;45.486;9.190;2022-12-18T03:55:43;44.67;;;23.70;;
21665;SDS011;10994;45.486;9.190;2022-12-18T03:58:11;59.83;;;26.80;;
21665;SDS011;10994;45.486;9.190;2022-12-18T04:00:51;55.57;;;25.57;;
21665;SDS011;10994;45.486;9.190;2022-12-18T04:03:19;55.10;;;26.70;;
21665;SDS011;10994;45.486;9.190;2022-12-18T04:05:48;60.27;;;28.63;;
21665;SDS011;10994;45.486;9.190;2022-12-18T04:08:18;54.27;;;25.37;;
21665;SDS011;10994;45.486;9.190;2022-12-18T04:10:51;58.33;;;26.97;;
21665;SDS011;10994;45.486;9.190;2022-12-18T04:13:21;59.40;;;27.50;;
21665;SDS011;10994;45.486;9.190;2022-12-18T04:15:48;51.77;;;25.00;;
21665;SDS011;10994;45.486;9.190;2022-12-18T04:18:15;46.10;;;23.37;;
21665;SDS011;10994;45.486;9.190;2022-12-18T04:20:42;48.23;;;22.97;;
21665;SDS011;10994;45.486;9.190;2022-12-18T04:23:09;42.73;;;20.73;;
21665;SDS011;10994;45.486;9.190;2022-12-18T04:25:36;44.00;;;22.30;;
21665;SDS011;10994;45.486;9.190;2022-12-18T04:28:09;41.97;;;20.07;;
21665;SDS011;10994;45.486;9.190;2022-12-18T04:30:37;45.80;;;21.33;;
21665;SDS011;10994;45.486;9.190;2022-12-18T04:33:03;43.97;;;22.57;;
21665;SDS011;10994;45.486;9.190;2022-12-18T04:35:33;44.17;;;21.70;;
21665;SDS011;10994;45.486;9.190;2022-12-18T04:37:58;43.07;;;22.03;;
21665;SDS011;10994;45.486;9.190;2022-12-18T04:40:25;38.13;;;20.83;;
21665;SDS011;10994;45.486;9.190;2022-12-18T04:42:51;37.23;;;19.77;;
21665;SDS011;10994;45.486;9.190;2022-12-18T04:45:17;39.17;;;20.50;;
21665;SDS011;10994;45.486;9.190;2022-12-18T04:47:43;49.20;;;21.60;;
21665;SDS011;10994;45.486;9.190;2022-12-18T04:50:09;38.13;;;20.00;;
21665;SDS011;10994;45.486;9.190;2022-12-18T04:52:35;43.10;;;21.50;;
21665;SDS011;10994;45.486;9.190;2022-12-18T04:55:01;44.70;;;21.03;;
21665;SDS011;10994;45.486;9.190;2022-12-18T04:57:26;40.97;;;21.27;;
21665;SDS011;10994;45.486;9.190;2022-12-18T04:59:52;36.73;;;21.03;;
21665;SDS011;10994;45.486;9.190;2022-12-18T05:02:19;37.77;;;20.60;;
21665;SDS011;10994;45.486;9.190;2022-12-18T05:04:44;39.43;;;21.63;;
21665;SDS011;10994;45.486;9.190;2022-12-18T05:07:10;35.40;;;19.70;;
21665;SDS011;10994;45.486;9.190;2022-12-18T05:09:35;36.07;;;19.57;;
21665;SDS011;10994;45.486;9.190;2022-12-18T05:12:01;33.73;;;20.10;;
21665;SDS011;10994;45.486;9.190;2022-12-18T05:14:27;45.03;;;21.93;;
21665;SDS011;10994;45.486;9.190;2022-12-18T05:16:54;34.57;;;19.27;;
21665;SDS011;10994;45.486;9.190;2022-12-18T05:19:20;36.97;;;20.50;;
21665;SDS011;10994;45.486;9.190;2022-12-18T05:21:45;33.13;;;19.33;;
21665;SDS011;10994;45.486;9.190;2022-12-18T05:24:11;39.03;;;19.93;;
21665;SDS011;10994;45.486;9.190;2022-12-18T05:26:37;35.90;;;19.40;;
21665;SDS011;10994;45.486;9.190;2022-12-18T05:29:03;36.37;;;20.10;;
21665;SDS011;10994;45.486;9.190;2022-12-18T05:31:28;31.63;;;19.53;;
21665;SDS011;10994;45.486;9.190;2022-12-18T05:33:54;33.67;;;19.43;;
21665;SDS011;10994;45.486;9.190;2022-12-18T05:36:20;29.37;;;18.40;;
21665;SDS011;10994;45.486;9.190;2022-12-18T05:38:48;29.17;;;17.57;;
21665;SDS011;10994;45.486;9.190;2022-12-18T05:41:14;28.87;;;17.70;;
21665;SDS011;10994;45.486;9.190;2022-12-18T05:43:40;28.43;;;18.13;;
21665;SDS011;10994;45.486;9.190;2022-12-18T05:46:06;30.43;;;17.77;;
21665;SDS011;10994;45.486;9.190;2022-12-18T05:48:34;31.63;;;17.27;;
21665;SDS011;10994;45.486;9.190;2022-12-18T05:51:07;27.70;;;16.53;;
21665;SDS011;10994;45.486;9.190;2022-12-18T05:53:35;27.73;;;17.50;;
21665;SDS011;10994;45.486;9.190;2022-12-18T05:56:05;27.40;;;17.40;;
21665;SDS011;10994;45.486;9.190;2022-12-18T05:58:32;26.30;;;18.50;;
21665;SDS011;10994;45.486;9.190;2022-12-18T06:01:05;24.37;;;16.77;;
21665;SDS011;10994;45.486;9.190;2022-12-18T06:03:34;26.47;;;17.10;;
21665;SDS011;10994;45.486;9.190;2022-12-18T06:06:00;26.43;;;16.50;;
21665;SDS011;10994;45.486;9.190;2022-12-18T06:08:26;28.07;;;18.07;;
21665;SDS011;10994;45.486;9.190;2022-12-18T06:10:52;29.00;;;17.33;;
21665;SDS011;10994;45.486;9.190;2022-12-18T06:13:18;26.97;;;17.17;;
21665;SDS011;10994;45.486;9.190;2022-12-18T06:15:44;29.67;;;17.63;;
21665;SDS011;10994;45.486;9.190;2022-12-18T06:18:10;25.93;;;16.27;;
21665;SDS011;10994;45.486;9.190;2022-12-18T06:20:36;24.60;;;15.93;;
21665;SDS011;10994;45.486;9.190;2022-12-18T06:23:04;27.67;;;16.93;;
21665;SDS011;10994;45.486;9.190;2022-12-18T06:25:30;25.73;;;16.70;;
21665;SDS011;10994;45.486;9.190;2022-12-18T06:27:57;26.63;;;16.13;;
21665;SDS011;10994;45.486;9.190;2022-12-18T06:30:22;25.10;;;16.67;;
21665;SDS011;10994;45.486;9.190;2022-12-18T06:32:48;26.53;;;16.43;;
21665;SDS011;10994;45.486;9.190;2022-12-18T06:35:14;26.00;;;16.40;;
21665;SDS011;10994;45.486;9.190;2022-12-18T06:37:40;30.17;;;16.07;;
21665;SDS011;10994;45.486;9.190;2022-12-18T06:40:06;25.53;;;16.37;;
21665;SDS011;10994;45.486;9.190;2022-12-18T06:42:32;26.93;;;16.57;;
21665;SDS011;10994;45.486;9.190;2022-12-18T06:44:58;26.17;;;16.53;;
21665;SDS011;10994;45.486;9.190;2022-12-18T06:47:23;25.43;;;16.23;;
21665;SDS011;10994;45.486;9.190;2022-12-18T06:49:49;27.07;;;17.20;;
21665;SDS011;10994;45.486;9.190;2022-12-18T06:52:15;25.80;;;16.40;;
21665;SDS011;10994;45.486;9.190;2022-12-18T06:54:40;25.57;;;16.63;;
21665;SDS011;10994;45.486;9.190;2022-12-18T06:57:06;23.77;;;15.77;;
21665;SDS011;10994;45.486;9.190;2022-12-18T06:59:32;26.37;;;16.37;;
21665;SDS011;10994;45.486;9.190;2022-12-18T07:01:57;25.30;;;16.53;;
21665;SDS011;10994;45.486;9.190;2022-12-18T07:04:27;29.43;;;17.37;;
21665;SDS011;10994;45.486;9.190;2022-12-18T07:06:56;28.63;;;17.87;;
21665;SDS011;10994;45.486;9.190;2022-12-18T07:09:23;22.97;;;15.00;;
21665;SDS011;10994;45.486;9.190;2022-12-18T07:11:49;28.30;;;16.37;;
21665;SDS011;10994;45.486;9.190;2022-12-18T07:14:14;26.07;;;17.20;;
21665;SDS011;10994;45.486;9.190;2022-12-18T07:16:40;26.83;;;16.00;;
21665;SDS011;10994;45.486;9.190;2022-12-18T07:19:05;27.17;;;15.87;;
21665;SDS011;10994;45.486;9.190;2022-12-18T07:21:31;26.77;;;17.93;;
21665;SDS011;10994;45.486;9.190;2022-12-18T07:23:57;28.30;;;17.23;;
21665;SDS011;10994;45.486;9.190;2022-12-18T07:26:23;22.37;;;15.97;;
21665;SDS011;10994;45.486;9.190;2022-12-18T07:28:49;24.07;;;15.20;;
21665;SDS011;10994;45.486;9.190;2022-12-18T07:31:16;30.20;;;17.10;;
21665;SDS011;10994;45.486;9.190;2022-12-18T07:33:45;23.47;;;16.07;;
21665;SDS011;10994;45.486;9.190;2022-12-18T07:36:11;24.87;;;16.63;;
21665;SDS011;10994;45.486;9.190;2022-12-18T07:38:38;28.93;;;16.83;;
21665;SDS011;10994;45.486;9.190;2022-12-18T07:41:05;24.93;;;17.20;;
21665;SDS011;10994;45.486;9.190;2022-12-18T07:43:33;28.13;;;16.67;;
21665;SDS011;10994;45.486;9.190;2022-12-18T07:45:59;30.10;;;18.60;;
21665;SDS011;10994;45.486;9.190;2022-12-18T07:48:25;34.07;;;18.80;;
21665;SDS011;10994;45.486;9.190;2022-12-18T07:50:51;29.90;;;17.87;;
21665;SDS011;10994;45.486;9.190;2022-12-18T07:53:17;33.10;;;19.50;;
21665;SDS011;10994;45.486;9.190;2022-12-18T07:55:43;29.23;;;19.33;;
21665;SDS011;10994;45.486;9.190;2022-12-18T07:58:08;28.00;;;17.97;;
21665;SDS011;10994;45.486;9.190;2022-12-18T08:00:34;33.30;;;20.47;;
21665;SDS011;10994;45.486;9.190;2022-12-18T08:03:00;30.60;;;18.97;;
21665;SDS011;10994;45.486;9.190;2022-12-18T08:05:29;28.43;;;18.70;;
21665;SDS011;10994;45.486;9.190;2022-12-18T08:07:54;37.47;;;21.00;;
21665;SDS011;10994;45.486;9.190;2022-12-18T08:10:21;32.43;;;20.00;;
21665;SDS011;10994;45.486;9.190;2022-12-18T08:12:50;30.80;;;19.13;;
21665;SDS011;10994;45.486;9.190;2022-12-18T08:15:16;32.13;;;19.50;;
21665;SDS011;10994;45.486;9.190;2022-12-18T08:17:42;32.57;;;19.53;;
21665;SDS011;10994;45.486;9.190;2022-12-18T08:20:08;33.80;;;19.60;;
21665;SDS011;10994;45.486;9.190;2022-12-18T08:22:34;32.67;;;19.77;;
21665;SDS011;10994;45.486;9.190;2022-12-18T08:25:03;32.37;;;20.20;;
21665;SDS011;10994;45.486;9.190;2022-12-18T08:27:29;32.03;;;18.23;;
21665;SDS011;10994;45.486;9.190;2022-12-18T08:29:55;32.70;;;18.87;;
21665;SDS011;10994;45.486;9.190;2022-12-18T08:32:22;29.90;;;17.73;;
21665;SDS011;10994;45.486;9.190;2022-12-18T08:34:48;33.13;;;18.43;;
21665;SDS011;10994;45.486;9.190;2022-12-18T08:37:13;30.83;;;19.40;;
21665;SDS011;10994;45.486;9.190;2022-12-18T08:39:39;36.93;;;20.63;;
21665;SDS011;10994;45.486;9.190;2022-12-18T08:42:05;34.50;;;19.67;;
21665;SDS011;10994;45.486;9.190;2022-12-18T08:44:49;29.30;;;17.97;;
21665;SDS011;10994;45.486;9.190;2022-12-18T08:47:15;25.97;;;17.90;;
21665;SDS011;10994;45.486;9.190;2022-12-18T08:49:40;28.63;;;17.07;;
21665;SDS011;10994;45.486;9.190;2022-12-18T08:52:06;29.83;;;18.47;;
21665;SDS011;10994;45.486;9.190;2022-12-18T08:54:32;27.63;;;18.17;;
21665;SDS011;10994;45.486;9.190;2022-12-18T08:56:57;24.67;;;15.23;;
21665;SDS011;10994;45.486;9.190;2022-12-18T08:59:23;24.50;;;16.43;;
21665;SDS011;10994;45.486;9.190;2022-12-18T09:01:49;28.97;;;16.40;;
21665;SDS011;10994;45.486;9.190;2022-12-18T09:04:15;24.40;;;16.97;;
21665;SDS011;10994;45.486;9.190;2022-12-18T09:06:41;23.83;;;16.07;;
21665;SDS011;10994;45.486;9.190;2022-12-18T09:09:06;23.33;;;16.00;;
21665;SDS011;10994;45.486;9.190;2022-12-18T09:11:32;24.00;;;14.63;;
21665;SDS011;10994;45.486;9.190;2022-12-18T09:13:59;24.87;;;15.70;;
21665;SDS011;10994;45.486;9.190;2022-12-18T09:16:26;24.70;;;16.60;;
21665;SDS011;10994;45.486;9.190;2022-12-18T09:18:57;24.47;;;16.20;;
21665;SDS011;10994;45.486;9.190;2022-12-18T09:21:30;23.00;;;16.47;;
21665;SDS011;10994;45.486;9.190;2022-12-18T09:23:57;23.93;;;16.30;;
21665;SDS011;10994;45.486;9.190;2022-12-18T09:26:23;26.07;;;17.40;;
21665;SDS011;10994;45.486;9.190;2022-12-18T09:28:50;22.93;;;16.20;;
21665;SDS011;10994;45.486;9.190;2022-12-18T09:31:17;29.60;;;17.60;;
21665;SDS011;10994;45.486;9.190;2022-12-18T09:33:44;25.23;;;16.27;;
21665;SDS011;10994;45.486;9.190;2022-12-18T09:36:11;24.47;;;16.43;;
21665;SDS011;10994;45.486;9.190;2022-12-18T09:38:38;26.30;;;17.93;;
21665;SDS011;10994;45.486;9.190;2022-12-18T09:44:01;24.40;;;16.43;;
21665;SDS011;10994;45.486;9.190;2022-12-18T09:46:37;24.93;;;17.67;;
21665;SDS011;10994;45.486;9.190;2022-12-18T09:49:06;25.47;;;16.87;;
21665;SDS011;10994;45.486;9.190;2022-12-18T09:54:11;20.93;;;16.23;;
21665;SDS011;10994;45.486;9.190;2022-12-18T09:56:41;26.00;;;16.60;;
21665;SDS011;10994;45.486;9.190;2022-12-18T09:59:15;26.07;;;17.73;;
21665;SDS011;10994;45.486;9.190;2022-12-18T10:01:49;23.97;;;16.10;;
21665;SDS011;10994;45.486;9.190;2022-12-18T10:04:14;22.87;;;16.70;;
21665;SDS011;10994;45.486;9.190;2022-12-18T10:17:13;21.37;;;15.17;;
21665;SDS011;10994;45.486;9.190;2022-12-18T10:19:58;21.13;;;15.53;;
21665;SDS011;10994;45.486;9.190;2022-12-18T10:22:42;24.60;;;15.73;;
21665;SDS011;10994;45.486;9.190;2022-12-18T10:25:25;23.30;;;15.83;;
21665;SDS011;10994;45.486;9.190;2022-12-18T10:28:12;23.33;;;16.60;;
21665;SDS011;10994;45.486;9.190;2022-12-18T10:30:40;25.63;;;17.07;;
21665;SDS011;10994;45.486;9.190;2022-12-18T10:33:10;25.57;;;16.13;;
21665;SDS011;10994;45.486;9.190;2022-12-18T10:35:41;20.93;;;14.83;;
21665;SDS011;10994;45.486;9.190;2022-12-18T10:40:53;28.67;;;17.93;;
21665;SDS011;10994;45.486;9.190;2022-12-18T10:43:30;28.80;;;18.07;;
21665;SDS011;10994;45.486;9.190;2022-12-18T10:46:01;30.67;;;18.30;;
21665;SDS011;10994;45.486;9.190;2022-12-18T10:48:27;34.50;;;19.73;;
21665;SDS011;10994;45.486;9.190;2022-12-18T10:50:54;29.50;;;19.83;;
21665;SDS011;10994;45.486;9.190;2022-12-18T10:53:22;28.90;;;19.40;;
21665;SDS011;10994;45.486;9.190;2022-12-18T10:55:50;31.77;;;19.80;;
21665;SDS011;10994;45.486;9.190;2022-12-18T11:03:42;32.03;;;18.93;;
21665;SDS011;10994;45.486;9.190;2022-12-18T11:06:24;29.50;;;19.43;;
21665;SDS011;10994;45.486;9.190;2022-12-18T11:08:57;27.53;;;17.20;;
21665;SDS011;10994;45.486;9.190;2022-12-18T11:11:25;26.80;;;18.37;;
21665;SDS011;10994;45.486;9.190;2022-12-18T11:16:42;25.27;;;16.73;;
21665;SDS011;10994;45.486;9.190;2022-12-18T11:19:12;27.80;;;17.63;;
21665;SDS011;10994;45.486;9.190;2022-12-18T11:21:52;24.33;;;17.60;;
21665;SDS011;10994;45.486;9.190;2022-12-18T11:24:27;29.73;;;17.50;;
21665;SDS011;10994;45.486;9.190;2022-12-18T11:27:00;24.17;;;17.70;;
21665;SDS011;10994;45.486;9.190;2022-12-18T11:32:59;28.43;;;19.00;;
21665;SDS011;10994;45.486;9.190;2022-12-18T11:35:13;23.97;;;17.30;;
21665;SDS011;10994;45.486;9.190;2022-12-18T11:37:46;21.07;;;15.90;;
21665;SDS011;10994;45.486;9.190;2022-12-18T11:40:47;24.63;;;16.60;;
21665;SDS011;10994;45.486;9.190;2022-12-18T11:43:16;22.57;;;16.33;;
21665;SDS011;10994;45.486;9.190;2022-12-18T11:45:54;26.23;;;17.80;;
21665;SDS011;10994;45.486;9.190;2022-12-18T11:48:30;19.40;;;15.10;;
21665;SDS011;10994;45.486;9.190;2022-12-18T11:51:01;21.43;;;14.77;;
21665;SDS011;10994;45.486;9.190;2022-12-18T11:53:30;22.77;;;15.10;;
21665;SDS011;10994;45.486;9.190;2022-12-18T11:58:47;22.60;;;15.23;;
21665;SDS011;10994;45.486;9.190;2022-12-18T12:01:40;22.63;;;16.00;;
21665;SDS011;10994;45.486;9.190;2022-12-18T12:04:20;23.43;;;15.20;;
21665;SDS011;10994;45.486;9.190;2022-12-18T12:18:23;21.93;;;15.07;;
21665;SDS011;10994;45.486;9.190;2022-12-18T12:26:30;24.77;;;16.07;;
21665;SDS011;10994;45.486;9.190;2022-12-18T12:34:30;37.73;;;26.03;;
21665;SDS011;10994;45.486;9.190;2022-12-18T12:39:49;23.60;;;17.03;;
21665;SDS011;10994;45.486;9.190;2022-12-18T12:42:22;28.53;;;19.80;;
21665;SDS011;10994;45.486;9.190;2022-12-18T12:45:45;34.73;;;22.13;;
21665;SDS011;10994;45.486;9.190;2022-12-18T12:48:16;34.53;;;22.60;;
21665;SDS011;10994;45.486;9.190;2022-12-18T12:51:02;37.80;;;24.40;;
21665;SDS011;10994;45.486;9.190;2022-12-18T12:53:34;45.53;;;26.47;;
21665;SDS011;10994;45.486;9.190;2022-12-18T12:56:03;43.73;;;27.87;;
21665;SDS011;10994;45.486;9.190;2022-12-18T12:58:38;42.00;;;27.13;;
21665;SDS011;10994;45.486;9.190;2022-12-18T13:03:54;40.93;;;27.03;;
21665;SDS011;10994;45.486;9.190;2022-12-18T13:09:12;41.03;;;26.23;;
21665;SDS011;10994;45.486;9.190;2022-12-18T13:11:44;39.47;;;25.80;;
21665;SDS011;10994;45.486;9.190;2022-12-18T13:14:31;42.20;;;26.87;;
21665;SDS011;10994;45.486;9.190;2022-12-18T13:19:48;45.00;;;26.57;;
21665;SDS011;10994;45.486;9.190;2022-12-18T13:22:34;40.90;;;25.43;;
21665;SDS011;10994;45.486;9.190;2022-12-18T13:25:02;46.57;;;28.03;;
21665;SDS011;10994;45.486;9.190;2022-12-18T13:28:02;43.23;;;25.83;;
21665;SDS011;10994;45.486;9.190;2022-12-18T13:30:44;40.90;;;25.37;;
21665;SDS011;10994;45.486;9.190;2022-12-18T13:41:03;33.73;;;22.83;;
21665;SDS011;10994;45.486;9.190;2022-12-18T13:43:38;29.90;;;21.27;;
21665;SDS011;10994;45.486;9.190;2022-12-18T13:46:19;37.20;;;23.77;;
21665;SDS011;10994;45.486;9.190;2022-12-18T13:48:51;38.33;;;23.40;;
21665;SDS011;10994;45.486;9.190;2022-12-18T13:51:20;32.37;;;22.57;;
21665;SDS011;10994;45.486;9.190;2022-12-18T13:56:18;37.87;;;23.20;;
21665;SDS011;10994;45.486;9.190;2022-12-18T13:59:02;32.23;;;21.37;;
21665;SDS011;10994;45.486;9.190;2022-12-18T14:01:41;30.53;;;20.60;;
21665;SDS011;10994;45.486;9.190;2022-12-18T14:06:50;31.00;;;21.83;;
21665;SDS011;10994;45.486;9.190;2022-12-18T14:09:26;25.13;;;19.27;;
21665;SDS011;10994;45.486;9.190;2022-12-18T14:11:54;30.23;;;20.10;;
21665;SDS011;10994;45.486;9.190;2022-12-18T14:14:42;29.10;;;20.13;;
21665;SDS011;10994;45.486;9.190;2022-12-18T14:17:11;29.60;;;20.23;;
21665;SDS011;10994;45.486;9.190;2022-12-18T14:19:40;30.70;;;21.47;;
21665;SDS011;10994;45.486;9.190;2022-12-18T14:22:16;28.20;;;20.33;;
21665;SDS011;10994;45.486;9.190;2022-12-18T14:25:15;30.87;;;21.47;;
21665;SDS011;10994;45.486;9.190;2022-12-18T14:27:46;28.23;;;19.93;;
21665;SDS011;10994;45.486;9.190;2022-12-18T14:33:00;26.83;;;18.50;;
21665;SDS011;10994;45.486;9.190;2022-12-18T14:35:34;26.10;;;19.87;;
21665;SDS011;10994;45.486;9.190;2022-12-18T14:38:20;33.00;;;19.40;;
21665;SDS011;10994;45.486;9.190;2022-12-18T14:40:46;27.47;;;19.63;;
21665;SDS011;10994;45.486;9.190;2022-12-18T14:43:14;29.63;;;18.97;;
21665;SDS011;10994;45.486;9.190;2022-12-18T14:45:46;27.87;;;18.13;;
21665;SDS011;10994;45.486;9.190;2022-12-18T14:50:38;26.37;;;18.87;;
21665;SDS011;10994;45.486;9.190;2022-12-18T14:53:04;26.53;;;19.00;;
21665;SDS011;10994;45.486;9.190;2022-12-18T14:55:53;24.83;;;18.27;;
21665;SDS011;10994;45.486;9.190;2022-12-18T14:58:19;25.60;;;18.60;;
21665;SDS011;10994;45.486;9.190;2022-12-18T15:00:44;25.77;;;18.10;;
21665;SDS011;10994;45.486;9.190;2022-12-18T15:03:12;25.07;;;18.60;;
21665;SDS011;10994;45.486;9.190;2022-12-18T15:05:43;22.10;;;17.87;;
21665;SDS011;10994;45.486;9.190;2022-12-18T15:08:30;26.57;;;18.80;;
21665;SDS011;10994;45.486;9.190;2022-12-18T15:11:22;23.90;;;17.67;;
21665;SDS011;10994;45.486;9.190;2022-12-18T15:13:52;23.77;;;17.90;;
21665;SDS011;10994;45.486;9.190;2022-12-18T15:16:18;27.37;;;18.73;;
21665;SDS011;10994;45.486;9.190;2022-12-18T15:18:44;22.73;;;17.57;;
21665;SDS011;10994;45.486;9.190;2022-12-18T15:21:21;26.80;;;18.17;;
21665;SDS011;10994;45.486;9.190;2022-12-18T15:23:49;26.63;;;17.87;;
21665;SDS011;10994;45.486;9.190;2022-12-18T15:26:17;27.57;;;18.77;;
21665;SDS011;10994;45.486;9.190;2022-12-18T15:36:18;23.17;;;18.17;;
21665;SDS011;10994;45.486;9.190;2022-12-18T15:38:49;26.13;;;18.30;;
21665;SDS011;10994;45.486;9.190;2022-12-18T15:41:17;26.83;;;18.83;;
21665;SDS011;10994;45.486;9.190;2022-12-18T15:43:45;25.60;;;19.07;;
21665;SDS011;10994;45.486;9.190;2022-12-18T15:46:13;25.87;;;19.23;;
21665;SDS011;10994;45.486;9.190;2022-12-18T15:48:41;25.87;;;19.23;;
21665;SDS011;10994;45.486;9.190;2022-12-18T15:51:11;26.30;;;18.47;;
21665;SDS011;10994;45.486;9.190;2022-12-18T15:53:40;26.23;;;18.07;;
21665;SDS011;10994;45.486;9.190;2022-12-18T15:56:09;27.30;;;19.03;;
21665;SDS011;10994;45.486;9.190;2022-12-18T15:58:55;26.03;;;18.43;;
21665;SDS011;10994;45.486;9.190;2022-12-18T16:01:26;24.80;;;18.27;;
21665;SDS011;10994;45.486;9.190;2022-12-18T16:03:53;27.10;;;18.23;;
21665;SDS011;10994;45.486;9.190;2022-12-18T16:06:20;27.07;;;19.30;;
21665;SDS011;10994;45.486;9.190;2022-12-18T16:08:46;25.93;;;18.57;;
21665;SDS011;10994;45.486;9.190;2022-12-18T16:11:20;27.40;;;18.23;;
21665;SDS011;10994;45.486;9.190;2022-12-18T16:16:47;26.87;;;18.33;;
21665;SDS011;10994;45.486;9.190;2022-12-18T16:19:15;30.43;;;20.00;;
21665;SDS011;10994;45.486;9.190;2022-12-18T16:21:42;26.07;;;18.77;;
21665;SDS011;10994;45.486;9.190;2022-12-18T16:24:11;28.13;;;19.47;;
21665;SDS011;10994;45.486;9.190;2022-12-18T16:26:47;27.93;;;20.17;;
21665;SDS011;10994;45.486;9.190;2022-12-18T16:29:13;31.43;;;21.57;;
21665;SDS011;10994;45.486;9.190;2022-12-18T16:31:39;29.47;;;19.73;;
21665;SDS011;10994;45.486;9.190;2022-12-18T16:34:13;27.63;;;20.47;;
21665;SDS011;10994;45.486;9.190;2022-12-18T16:36:52;25.57;;;19.50;;
21665;SDS011;10994;45.486;9.190;2022-12-18T16:39:21;27.97;;;19.57;;
21665;SDS011;10994;45.486;9.190;2022-12-18T16:41:47;27.67;;;19.23;;